createdAt,value
2022-10-31T06:49:50.298Z,9.70
2022-10-31T06:52:57.280Z,10.00
2022-10-31T06:55:59.296Z,10.40
2022-10-31T06:59:01.346Z,10.90
2022-10-31T07:02:03.180Z,11.10
2022-10-31T07:05:05.270Z,11.40
2022-10-31T07:08:09.774Z,11.70
2022-10-31T07:11:11.790Z,11.80
2022-10-31T07:14:13.489Z,12.00
2022-10-31T07:17:15.195Z,12.20
2022-10-31T07:20:17.094Z,12.40
2022-10-31T07:23:19.239Z,12.50
2022-10-31T07:26:20.974Z,12.70
2022-10-31T07:29:22.697Z,13.00
2022-10-31T07:32:24.364Z,13.20
2022-10-31T07:35:28.901Z,13.40
2022-10-31T07:38:30.627Z,13.20
2022-10-31T07:41:32.460Z,13.20
2022-10-31T07:44:34.159Z,13.70
2022-10-31T07:47:45.178Z,13.90
2022-10-31T07:50:47.239Z,14.00
2022-10-31T07:53:48.935Z,14.20
2022-10-31T07:56:50.636Z,14.50
2022-10-31T07:59:52.501Z,14.90
2022-10-31T08:03:04.429Z,14.60
2022-10-31T08:06:06.420Z,14.90
2022-10-31T08:09:08.085Z,15.30
2022-10-31T08:12:09.962Z,15.90
2022-10-31T08:15:11.649Z,16.10
2022-10-31T08:18:14.912Z,16.20
2022-10-31T08:21:16.776Z,16.50
2022-10-31T08:24:19.121Z,16.90
2022-10-31T08:27:20.806Z,17.40
2022-10-31T08:30:25.648Z,17.70
2022-10-31T08:33:27.433Z,17.60
2022-10-31T08:36:29.797Z,17.50
2022-10-31T08:39:31.451Z,17.40
2022-10-31T08:42:33.500Z,17.40
2022-10-31T08:45:35.699Z,18.10
2022-10-31T08:48:37.667Z,18.30
2022-10-31T08:51:39.389Z,18.20
2022-10-31T08:54:41.259Z,18.90
2022-10-31T08:57:42.964Z,19.60
2022-10-31T09:00:46.606Z,19.90
2022-10-31T09:03:48.360Z,20.00
2022-10-31T09:07:19.647Z,20.00
2022-10-31T09:10:12.091Z,20.60
2022-10-31T09:13:16.552Z,21.20
2022-10-31T09:16:18.257Z,21.00
2022-10-31T09:19:20.078Z,21.30
2022-10-31T09:22:21.773Z,21.30
2022-10-31T09:25:23.575Z,21.30
2022-10-31T09:28:25.333Z,20.70
2022-10-31T09:31:27.078Z,20.10
2022-10-31T09:34:28.815Z,20.60
2022-10-31T09:37:30.814Z,20.00
2022-10-31T09:40:37.767Z,20.30
2022-10-31T09:44:01.454Z,19.60
2022-10-31T09:47:25.957Z,19.20
2022-10-31T09:50:37.509Z,19.10
2022-10-31T09:54:03.147Z,19.10
2022-10-31T09:57:05.464Z,18.90
2022-10-31T10:00:15.412Z,19.40
2022-10-31T10:03:39.915Z,20.00
2022-10-31T10:06:45.911Z,19.70
2022-10-31T10:09:47.790Z,20.00
2022-10-31T10:13:08.101Z,20.30
2022-10-31T10:16:34.594Z,20.10
2022-10-31T10:19:49.199Z,20.20
2022-10-31T10:23:09.534Z,20.50
2022-10-31T10:26:20.875Z,20.50
2022-10-31T10:29:35.743Z,20.50
2022-10-31T10:32:59.105Z,20.30
2022-10-31T10:36:04.919Z,20.40
2022-10-31T10:39:31.063Z,20.40
2022-10-31T10:42:53.176Z,20.60
2022-10-31T10:46:39.662Z,20.90
2022-10-31T10:49:51.267Z,21.10
2022-10-31T10:53:32.509Z,21.00
2022-10-31T10:56:46.076Z,20.60
2022-10-31T10:59:48.141Z,20.40
2022-10-31T11:02:50.787Z,20.10
2022-10-31T11:05:55.334Z,19.80
2022-10-31T11:08:57.082Z,19.70
2022-10-31T11:11:59.829Z,19.30
2022-10-31T11:15:20.482Z,19.70
2022-10-31T11:21:35.580Z,19.80
2022-10-31T11:24:41.533Z,19.50
2022-10-31T11:27:43.273Z,19.30
2022-10-31T11:30:49.000Z,19.50
2022-10-31T11:33:58.999Z,19.70
2022-10-31T11:37:16.104Z,19.80
2022-10-31T11:40:22.087Z,19.30
2022-10-31T11:43:24.573Z,18.90
2022-10-31T11:46:36.540Z,18.80
2022-10-31T11:49:42.868Z,19.00
2022-10-31T11:52:44.861Z,19.30
2022-10-31T11:55:47.684Z,19.40
2022-10-31T11:59:00.886Z,19.40
2022-10-31T12:02:03.074Z,19.20
2022-10-31T12:05:26.238Z,19.70
2022-10-31T12:08:32.330Z,20.00
2022-10-31T12:12:00.562Z,20.00
2022-10-31T12:15:29.972Z,20.00
2022-10-31T12:18:44.772Z,20.20
2022-10-31T12:22:13.242Z,20.30
2022-10-31T12:25:35.477Z,20.20
2022-10-31T12:29:01.033Z,20.20
2022-10-31T12:32:30.350Z,20.30
2022-10-31T12:35:43.761Z,19.50
2022-10-31T12:39:02.958Z,19.20
2022-10-31T12:42:31.820Z,19.10
2022-10-31T12:45:45.989Z,19.10
2022-10-31T12:49:13.102Z,19.00
2022-10-31T12:52:32.844Z,19.30
2022-10-31T12:56:07.532Z,19.50
2022-10-31T12:59:34.765Z,19.70
2022-10-31T13:03:03.903Z,19.30
2022-10-31T13:06:11.411Z,19.00
2022-10-31T13:09:18.884Z,19.00
2022-10-31T13:12:22.917Z,19.20
2022-10-31T13:15:28.741Z,19.30
2022-10-31T13:18:38.891Z,19.50
2022-10-31T13:21:49.450Z,19.70
2022-10-31T13:25:00.156Z,19.70
2022-10-31T13:28:06.147Z,19.60
2022-10-31T13:31:07.973Z,20.10
2022-10-31T13:34:30.040Z,20.50
2022-10-31T13:37:43.663Z,20.70
2022-10-31T13:40:56.379Z,20.70
2022-10-31T13:44:06.788Z,20.20
2022-10-31T13:47:28.557Z,19.80
2022-10-31T13:50:33.124Z,19.20
2022-10-31T13:53:40.570Z,19.00
2022-10-31T13:56:42.338Z,18.80
2022-10-31T13:59:52.608Z,18.60
2022-10-31T14:02:57.909Z,18.40
2022-10-31T14:06:00.341Z,18.40
2022-10-31T14:09:02.675Z,18.50
2022-10-31T14:12:09.436Z,18.60
2022-10-31T14:15:21.131Z,18.60
2022-10-31T14:18:29.755Z,18.80
2022-10-31T14:21:38.753Z,18.80
2022-10-31T14:24:40.489Z,18.90
2022-10-31T14:27:47.550Z,19.00
2022-10-31T14:30:56.053Z,19.10
2022-10-31T14:33:57.865Z,19.20
2022-10-31T14:37:26.784Z,19.10
2022-10-31T14:40:40.871Z,19.20
2022-10-31T14:44:12.420Z,19.10
2022-10-31T14:47:25.240Z,18.70
2022-10-31T14:50:50.243Z,18.50
2022-10-31T14:53:56.471Z,18.40
2022-10-31T14:57:05.092Z,18.30
2022-10-31T15:00:09.683Z,18.20
2022-10-31T15:03:34.454Z,18.20
2022-10-31T15:06:50.537Z,18.10
2022-10-31T15:10:02.126Z,18.00
2022-10-31T15:13:22.602Z,18.00
2022-10-31T15:16:30.018Z,17.90
2022-10-31T15:19:34.510Z,17.70
2022-10-31T15:22:36.258Z,17.70
2022-10-31T15:25:37.907Z,17.60
2022-10-31T15:28:39.954Z,17.60
2022-10-31T15:31:59.094Z,17.60
2022-10-31T15:35:00.881Z,17.40
2022-10-31T15:38:03.077Z,17.20
2022-10-31T15:41:39.692Z,17.00
2022-10-31T15:44:43.208Z,16.80
2022-10-31T15:47:50.280Z,16.80
2022-10-31T15:50:56.445Z,16.70
2022-10-31T15:53:59.080Z,16.60
2022-10-31T15:57:00.793Z,16.50
2022-10-31T16:00:02.638Z,16.40
2022-10-31T16:03:16.770Z,16.40
2022-10-31T16:06:21.564Z,16.40
2022-10-31T16:09:24.959Z,16.40
2022-10-31T16:12:35.607Z,16.40
2022-10-31T16:15:37.426Z,16.40
2022-10-31T16:18:41.162Z,16.30
2022-10-31T16:21:43.297Z,16.20
2022-10-31T16:24:50.731Z,16.00
2022-10-31T16:27:54.799Z,15.90
2022-10-31T16:30:57.847Z,15.70
2022-10-31T16:34:04.448Z,15.60
2022-10-31T16:37:06.112Z,15.60
2022-10-31T16:40:10.857Z,15.80
2022-10-31T16:43:14.736Z,15.90
2022-10-31T16:46:25.051Z,16.00
2022-10-31T16:49:26.943Z,15.80
2022-10-31T16:52:37.949Z,15.80
2022-10-31T16:55:49.641Z,15.80
2022-10-31T16:58:51.427Z,15.80
